Time,TemperatureF,DewpointF,PressureIn,WindDirection,WindDirectionDegrees,WindSpeedMPH,WindSpeedGustMPH,Humidity,HourlyPrecipIn,Conditions,Clouds,dailyrainin,SolarRadiationWatts/m^2,SoftwareType,DateUTC
2013-04-12 00:09:00,34.2,32.7,29.67,North,355,8.0,10.0,94,0.00,,,0.36,0,Wunderground v.1.15,2013-04-12 05:09:00,
2013-04-12 00:20:00,34.2,32.7,29.68,NW,306,7.0,7.0,94,0.00,,,0.00,0,Wunderground v.1.15,2013-04-12 05:20:00,
2013-04-12 00:29:00,34.2,32.7,29.68,NW,323,8.0,10.0,94,0.00,,,0.00,0,Wunderground v.1.15,2013-04-12 05:29:00,
2013-04-12 00:39:00,34.1,32.6,29.68,NW,324,8.0,10.0,94,0.00,,,0.00,0,Wunderground v.1.15,2013-04-12 05:39:00,
2013-04-12 00:50:00,34.0,32.5,29.69,NW,323,8.0,8.0,94,0.00,,,0.00,0,Wunderground v.1.15,2013-04-12 05:50:00,
2013-04-12 00:59:00,34.0,32.5,29.69,NW,310,9.0,9.0,94,0.00,,,0.00,0,Wunderground v.1.15,2013-04-12 05:59:00,
2013-04-12 01:10:00,34.0,32.5,29.69,NNW,329,8.0,10.0,94,0.00,,,0.00,0,Wunderground v.1.15,2013-04-12 06:10:00,
2013-04-12 01:19:00,33.9,32.4,29.69,NW,326,10.0,14.0,94,0.00,,,0.00,0,Wunderground v.1.15,2013-04-12 06:19:00,
2013-04-12 01:29:00,34.0,32.5,29.69,NNW,339,11.0,11.0,94,0.00,,,0.00,0,Wunderground v.1.15,2013-04-12 06:29:00,
2013-04-12 01:40:00,33.9,32.4,29.69,NNW,337,11.0,11.0,94,0.00,,,0.00,0,Wunderground v.1.15,2013-04-12 06:40:00,
2013-04-12 01:49:00,33.9,32.4,29.69,NNW,335,11.0,11.0,94,0.00,,,0.00,0,Wunderground v.1.15,2013-04-12 06:49:00,
2013-04-12 02:00:00,34.0,32.2,29.69,NW,323,12.0,12.0,93,0.00,,,0.00,0,Wunderground v.1.15,2013-04-12 07:00:00,
2013-04-12 02:10:00,34.0,32.2,29.69,NNW,340,12.0,12.0,93,0.00,,,0.00,0,Wunderground v.1.15,2013-04-12 07:10:00,
2013-04-12 02:19:00,34.0,32.2,29.69,NNW,328,11.0,11.0,93,0.00,,,0.00,0,Wunderground v.1.15,2013-04-12 07:19:00,
2013-04-12 02:29:00,34.0,32.2,29.69,NNW,333,10.0,13.0,93,0.00,,,0.00,0,Wunderground v.1.15,2013-04-12 07:29:00,
2013-04-12 02:40:00,34.0,32.2,29.69,NW,317,12.0,12.0,93,0.00,,,0.00,0,Wunderground v.1.15,2013-04-12 07:40:00,
2013-04-12 02:50:00,33.9,32.1,29.70,NW,320,10.0,10.0,93,0.00,,,0.00,0,Wunderground v.1.15,2013-04-12 07:50:00,
2013-04-12 02:59:00,33.9,32.1,29.70,NW,311,11.0,11.0,93,0.00,,,0.00,0,Wunderground v.1.15,2013-04-12 07:59:00,
2013-04-12 03:10:00,33.8,31.7,29.70,NW,323,11.0,11.0,92,0.00,,,0.00,0,Wunderground v.1.15,2013-04-12 08:10:00,
2013-04-12 03:19:00,33.8,31.7,29.70,NNW,334,11.0,13.0,92,0.00,,,0.00,0,Wunderground v.1.15,2013-04-12 08:19:00,
2013-04-12 03:29:00,33.7,31.6,29.70,North,349,11.0,11.0,92,0.00,,,0.00,0,Wunderground v.1.15,2013-04-12 08:29:00,
2013-04-12 03:40:00,33.8,31.7,29.70,NNW,336,11.0,11.0,92,0.00,,,0.00,0,Wunderground v.1.15,2013-04-12 08:40:00,
2013-04-12 03:49:00,33.7,31.6,29.71,North,349,12.0,12.0,92,0.00,,,0.00,0,Wunderground v.1.15,2013-04-12 08:49:00,
2013-04-12 04:00:00,33.7,31.6,29.71,NNW,334,10.0,13.0,92,0.00,,,0.00,0,Wunderground v.1.15,2013-04-12 09:00:00,
2013-04-12 04:09:00,33.7,31.6,29.71,NW,323,11.0,11.0,92,0.00,,,0.00,0,Wunderground v.1.15,2013-04-12 09:09:00,
2013-04-12 04:20:00,33.7,31.6,29.72,NNW,340,10.0,10.0,92,0.00,,,0.00,0,Wunderground v.1.15,2013-04-12 09:20:00,
2013-04-12 04:29:00,33.6,31.5,29.72,NNW,340,10.0,10.0,92,0.00,,,0.00,0,Wunderground v.1.15,2013-04-12 09:29:00,
2013-04-12 04:40:00,33.5,31.2,29.72,NNW,335,10.0,10.0,91,0.00,,,0.00,0,Wunderground v.1.15,2013-04-12 09:40:00,
2013-04-12 04:49:00,33.6,31.3,29.73,NNW,329,10.0,10.0,91,0.00,,,0.00,0,Wunderground v.1.15,2013-04-12 09:49:00,
2013-04-12 04:59:00,33.6,31.3,29.72,NW,326,10.0,10.0,91,0.00,,,0.00,0,Wunderground v.1.15,2013-04-12 09:59:00,
2013-04-12 05:10:00,33.5,31.4,29.73,NNW,332,10.0,11.0,92,0.00,,,0.00,0,Wunderground v.1.15,2013-04-12 10:10:00,
2013-04-12 05:19:00,33.3,31.0,29.73,North,349,11.0,11.0,91,0.00,,,0.00,0,Wunderground v.1.15,2013-04-12 10:19:00,
2013-04-12 05:29:00,33.0,30.7,29.73,NNW,336,12.0,16.0,91,0.00,,,0.00,0,Wunderground v.1.15,2013-04-12 10:29:00,
2013-04-12 05:40:00,32.7,30.1,29.73,NNE,23,11.0,11.0,90,0.00,,,0.00,0,Wunderground v.1.15,2013-04-12 10:40:00,
2013-04-12 05:49:00,32.7,30.1,29.73,NNW,343,9.0,13.0,90,0.00,,,0.00,0,Wunderground v.1.15,2013-04-12 10:49:00,
2013-04-12 05:59:00,32.8,30.5,29.74,NNW,342,10.0,10.0,91,0.00,,,0.00,0,Wunderground v.1.15,2013-04-12 10:59:00,
2013-04-12 06:10:00,32.8,30.5,29.73,NW,314,9.0,10.0,91,0.00,,,0.00,0,Wunderground v.1.15,2013-04-12 11:10:00,
2013-04-12 06:19:00,32.6,30.0,29.74,NW,315,13.0,13.0,90,0.00,,,0.00,0,Wunderground v.1.15,2013-04-12 11:19:00,
2013-04-12 06:29:00,32.4,29.8,29.75,WNW,302,12.0,12.0,90,0.00,,,0.00,0,Wunderground v.1.15,2013-04-12 11:29:00,
2013-04-12 06:40:00,32.3,29.7,29.75,NW,323,10.0,10.0,90,0.00,,,0.00,0,Wunderground v.1.15,2013-04-12 11:40:00,
2013-04-12 06:49:00,32.3,30.0,29.75,WNW,302,10.0,10.0,91,0.00,,,0.00,0,Wunderground v.1.15,2013-04-12 11:49:00,
2013-04-12 07:00:00,32.2,29.9,29.76,NNW,328,9.0,13.0,91,0.00,,,0.00,5,Wunderground v.1.15,2013-04-12 12:00:00,
2013-04-12 07:10:00,32.2,29.9,29.76,NW,325,11.0,11.0,91,0.00,,,0.00,9,Wunderground v.1.15,2013-04-12 12:10:00,
2013-04-12 07:19:00,32.2,29.9,29.76,NW,323,10.0,11.0,91,0.00,,,0.00,19,Wunderground v.1.15,2013-04-12 12:19:00,
2013-04-12 07:30:00,32.2,29.9,29.77,NW,317,10.0,10.0,91,0.00,,,0.00,21,Wunderground v.1.15,2013-04-12 12:30:00,
2013-04-12 07:40:00,32.3,29.7,29.77,NW,320,10.0,10.0,90,0.00,,,0.00,23,Wunderground v.1.15,2013-04-12 12:40:00,
2013-04-12 07:49:00,32.3,30.0,29.78,NNW,333,10.0,12.0,91,0.00,,,0.00,35,Wunderground v.1.15,2013-04-12 12:49:00,
2013-04-12 07:59:00,32.3,29.7,29.78,NNW,340,10.0,14.0,90,0.00,,,0.00,54,Wunderground v.1.15,2013-04-12 12:59:00,
2013-04-12 08:09:00,32.3,29.4,29.79,NNW,334,10.0,13.0,89,0.00,,,0.00,60,Wunderground v.1.15,2013-04-12 13:09:00,
2013-04-12 08:20:00,-999.9,-99.9,29.79,NW,313,11.0,11.0,255,-99.99,,,0.00,,Wunderground v.1.15,2013-04-12 13:20:00,
2013-04-12 08:29:00,-999.9,-99.9,29.80,NNW,342,12.0,12.0,255,-99.99,,,0.00,,Wunderground v.1.15,2013-04-12 13:29:00,
2013-04-12 08:39:00,-999.9,-99.9,29.80,NW,321,11.0,11.0,255,-99.99,,,0.00,,Wunderground v.1.15,2013-04-12 13:39:00,
2013-04-12 08:50:00,32.4,29.8,29.81,NW,322,10.0,11.0,90,0.00,,,0.00,70,Wunderground v.1.15,2013-04-12 13:50:00,
2013-04-12 08:59:00,32.5,29.9,29.81,NNW,341,10.0,11.0,90,0.00,,,0.00,84,Wunderground v.1.15,2013-04-12 13:59:00,
2013-04-12 09:10:00,32.5,29.6,29.82,NNW,327,10.0,10.0,89,0.00,,,0.00,67,Wunderground v.1.15,2013-04-12 14:10:00,
2013-04-12 09:20:00,32.6,29.7,29.83,West,281,9.0,11.0,89,0.00,,,0.00,91,Wunderground v.1.15,2013-04-12 14:20:00,
2013-04-12 09:29:00,32.9,29.7,29.83,NW,319,9.0,9.0,88,0.00,,,0.00,65,Wunderground v.1.15,2013-04-12 14:29:00,
2013-04-12 09:40:00,32.9,29.5,29.83,NW,314,9.0,9.0,87,0.00,,,0.00,79,Wunderground v.1.15,2013-04-12 14:40:00,
2013-04-12 09:50:00,33.1,29.9,29.83,NNW,330,9.0,12.0,88,0.00,,,0.00,113,Wunderground v.1.15,2013-04-12 14:50:00,
2013-04-12 09:59:00,32.9,29.5,29.83,NNW,328,10.0,10.0,87,0.00,,,0.00,91,Wunderground v.1.15,2013-04-12 14:59:00,
2013-04-12 10:09:00,32.9,29.5,29.84,NW,316,10.0,10.0,87,0.00,,,0.00,105,Wunderground v.1.15,2013-04-12 15:09:00,
2013-04-12 10:20:00,32.8,29.4,29.84,NW,312,11.0,14.0,87,0.00,,,0.00,134,Wunderground v.1.15,2013-04-12 15:20:00,
2013-04-12 10:29:00,33.1,29.4,29.85,North,5,11.0,13.0,86,0.00,,,0.00,148,Wunderground v.1.15,2013-04-12 15:29:00,
2013-04-12 10:39:00,33.2,29.5,29.85,WNW,297,12.0,12.0,86,0.00,,,0.00,141,Wunderground v.1.15,2013-04-12 15:39:00,
2013-04-12 10:50:00,33.2,29.2,29.85,NNE,29,10.0,10.0,85,0.00,,,0.00,162,Wunderground v.1.15,2013-04-12 15:50:00,
2013-04-12 10:59:00,33.4,29.1,29.86,NW,306,11.0,12.0,84,0.00,,,0.00,158,Wunderground v.1.15,2013-04-12 15:59:00,
2013-04-12 11:09:00,33.3,29.6,29.86,West,277,10.0,10.0,86,0.00,,,0.00,171,Wunderground v.1.15,2013-04-12 16:09:00,
2013-04-12 11:20:00,33.4,29.7,29.87,NW,311,9.0,9.0,86,0.00,,,0.00,183,Wunderground v.1.15,2013-04-12 16:20:00,
2013-04-12 11:30:00,33.3,29.6,29.87,NNW,344,9.0,9.0,86,0.00,,,0.00,213,Wunderground v.1.15,2013-04-12 16:30:00,
2013-04-12 11:39:00,33.3,29.6,29.87,WNW,285,11.0,11.0,86,0.00,,,0.00,174,Wunderground v.1.15,2013-04-12 16:39:00,
2013-04-12 11:50:00,33.3,29.3,29.88,NW,311,11.0,14.0,85,0.00,,,0.00,223,Wunderground v.1.15,2013-04-12 16:50:00,
2013-04-12 12:00:00,34.2,29.6,29.88,WNW,295,12.0,12.0,83,0.00,,,0.00,274,Wunderground v.1.15,2013-04-12 17:00:00,
2013-04-12 12:09:00,34.0,29.4,29.88,NNW,344,12.0,12.0,83,0.00,,,0.00,255,Wunderground v.1.15,2013-04-12 17:09:00,
2013-04-12 12:20:00,34.3,29.7,29.88,WNW,294,10.0,14.0,83,0.00,,,0.00,304,Wunderground v.1.15,2013-04-12 17:20:00,
2013-04-12 12:30:00,34.7,29.5,29.88,WNW,299,10.0,10.0,81,0.00,,,0.00,250,Wunderground v.1.15,2013-04-12 17:30:00,
2013-04-12 12:40:00,35.1,30.2,29.88,NW,306,11.0,11.0,82,0.00,,,0.00,364,Wunderground v.1.15,2013-04-12 17:40:00,
2013-04-12 12:49:00,35.6,30.3,29.88,NW,319,10.0,13.0,81,0.00,,,0.00,346,Wunderground v.1.15,2013-04-12 17:49:00,
2013-04-12 13:00:00,36.9,30.7,29.87,NNW,339,11.0,11.0,78,0.00,,,0.00,830,Wunderground v.1.15,2013-04-12 18:00:00,
2013-04-12 13:09:00,36.4,30.2,29.87,NW,316,12.0,12.0,78,0.00,,,0.00,399,Wunderground v.1.15,2013-04-12 18:09:00,
2013-04-12 13:20:00,37.2,29.7,29.87,NNW,327,12.0,15.0,74,0.00,,,0.00,631,Wunderground v.1.15,2013-04-12 18:20:00,
2013-04-12 13:30:00,37.1,29.9,29.88,NW,307,11.0,11.0,75,0.00,,,0.00,265,Wunderground v.1.15,2013-04-12 18:30:00,
2013-04-12 14:29:00,36.1,30.2,29.90,WNW,300,13.0,13.0,79,0.00,,,0.00,121,Wunderground v.1.15,2013-04-12 19:29:00,
2013-04-12 14:40:00,36.0,30.1,29.90,West,269,9.0,10.0,79,0.00,,,0.00,114,Wunderground v.1.15,2013-04-12 19:40:00,
2013-04-12 14:49:00,36.1,29.6,29.90,WNW,291,9.0,9.0,77,0.00,,,0.00,148,Wunderground v.1.15,2013-04-12 19:49:00,
2013-04-12 14:59:00,36.5,30.3,29.90,West,259,10.0,14.0,78,0.00,,,0.00,255,Wunderground v.1.15,2013-04-12 19:59:00,
2013-04-12 15:10:00,37.2,30.3,29.90,WNW,295,9.0,10.0,76,0.00,,,0.00,329,Wunderground v.1.15,2013-04-12 20:10:00,
2013-04-12 15:19:00,37.7,30.5,29.91,West,264,10.0,10.0,75,0.00,,,0.00,120,Wunderground v.1.15,2013-04-12 20:19:00,
2013-04-12 15:29:00,36.7,30.2,29.91,WNW,294,12.0,16.0,77,0.00,,,0.00,130,Wunderground v.1.15,2013-04-12 20:29:00,
2013-04-12 15:39:00,36.6,30.1,29.91,WNW,287,12.0,12.0,77,0.00,,,0.00,179,Wunderground v.1.15,2013-04-12 20:39:00,
2013-04-12 15:50:00,36.6,29.4,29.91,NW,313,12.0,12.0,75,0.00,,,0.00,132,Wunderground v.1.15,2013-04-12 20:50:00,
2013-04-12 15:59:00,36.8,29.9,29.91,WNW,296,13.0,13.0,76,0.00,,,0.00,192,Wunderground v.1.15,2013-04-12 20:59:00,
2013-04-12 16:10:00,37.2,30.0,29.91,WNW,287,13.0,13.0,75,0.00,,,0.00,218,Wunderground v.1.15,2013-04-12 21:10:00,
2013-04-12 16:20:00,37.0,29.8,29.91,West,279,14.0,14.0,75,0.00,,,0.00,200,Wunderground v.1.15,2013-04-12 21:20:00,
2013-04-12 16:29:00,36.3,29.5,29.91,WSW,251,13.0,14.0,76,0.00,,,0.00,141,Wunderground v.1.15,2013-04-12 21:29:00,
2013-04-12 16:40:00,36.1,29.6,29.92,West,277,13.0,18.0,77,0.00,,,0.00,132,Wunderground v.1.15,2013-04-12 21:40:00,
2013-04-12 16:50:00,36.0,29.8,29.92,West,281,13.0,13.0,78,0.00,,,0.00,141,Wunderground v.1.15,2013-04-12 21:50:00,
2013-04-12 16:59:00,35.7,29.2,29.93,West,263,13.0,13.0,77,0.00,,,0.00,114,Wunderground v.1.15,2013-04-12 21:59:00,
2013-04-12 17:09:00,35.3,29.1,29.93,WNW,301,12.0,13.0,78,0.00,,,0.00,70,Wunderground v.1.15,2013-04-12 22:09:00,
2013-04-12 17:20:00,35.1,28.9,29.93,NW,306,12.0,14.0,78,0.00,,,0.00,58,Wunderground v.1.15,2013-04-12 22:20:00,
2013-04-12 17:29:00,35.2,28.7,29.93,WNW,289,13.0,13.0,77,0.00,,,0.00,77,Wunderground v.1.15,2013-04-12 22:29:00,
2013-04-12 17:40:00,35.1,28.6,29.94,WNW,284,11.0,12.0,77,0.00,,,0.00,74,Wunderground v.1.15,2013-04-12 22:40:00,
2013-04-12 17:50:00,35.0,28.2,29.94,WNW,296,11.0,13.0,76,0.00,,,0.00,44,Wunderground v.1.15,2013-04-12 22:50:00,
2013-04-12 17:59:00,34.5,28.3,29.94,WNW,293,13.0,14.0,78,0.00,,,0.00,47,Wunderground v.1.15,2013-04-12 22:59:00,
2013-04-12 18:09:00,34.3,27.8,29.95,WNW,292,11.0,11.0,77,0.00,,,0.00,40,Wunderground v.1.15,2013-04-12 23:09:00,
2013-04-12 18:20:00,34.0,27.5,29.95,NW,306,11.0,12.0,77,0.00,,,0.00,47,Wunderground v.1.15,2013-04-12 23:20:00,
2013-04-12 18:29:00,33.9,27.4,29.95,NW,306,10.0,10.0,77,0.00,,,0.00,32,Wunderground v.1.15,2013-04-12 23:29:00,
2013-04-12 18:40:00,33.8,27.4,29.96,WNW,286,10.0,10.0,77,0.00,,,0.00,25,Wunderground v.1.15,2013-04-12 23:40:00,
2013-04-12 18:50:00,33.7,27.3,29.96,WNW,286,10.0,14.0,77,0.00,,,0.00,28,Wunderground v.1.15,2013-04-12 23:50:00,
2013-04-12 18:59:00,33.6,27.2,29.96,West,271,10.0,10.0,77,0.00,,,0.00,21,Wunderground v.1.15,2013-04-12 23:59:00,
2013-04-12 19:09:00,33.4,27.0,29.96,West,269,11.0,11.0,77,0.00,,,0.00,11,Wunderground v.1.15,2013-04-13 00:09:00,
2013-04-12 19:19:00,33.1,26.7,29.96,WNW,289,11.0,11.0,77,0.00,,,0.00,16,Wunderground v.1.15,2013-04-13 00:19:00,
2013-04-12 19:29:00,32.9,26.5,29.96,NW,304,9.0,9.0,77,0.00,,,0.00,14,Wunderground v.1.15,2013-04-13 00:29:00,
2013-04-12 19:40:00,32.9,26.5,29.96,NW,304,11.0,12.0,77,0.00,,,0.00,5,Wunderground v.1.15,2013-04-13 00:40:00,
2013-04-12 19:49:00,32.7,26.6,29.97,WNW,284,9.0,9.0,78,0.00,,,0.00,0,Wunderground v.1.15,2013-04-13 00:49:00,
2013-04-12 20:00:00,32.6,26.5,29.96,WNW,282,12.0,12.0,78,0.00,,,0.00,0,Wunderground v.1.15,2013-04-13 01:00:00,
2013-04-12 20:10:00,32.5,26.1,29.97,WNW,303,12.0,12.0,77,0.00,,,0.00,0,Wunderground v.1.15,2013-04-13 01:10:00,
2013-04-12 20:20:00,32.5,25.5,29.97,West,281,10.0,14.0,75,0.00,,,0.00,0,Wunderground v.1.15,2013-04-13 01:20:00,
2013-04-12 20:29:00,32.5,26.1,29.97,WNW,287,9.0,9.0,77,0.00,,,0.00,0,Wunderground v.1.15,2013-04-13 01:29:00,
2013-04-12 20:40:00,32.5,26.4,29.97,WNW,294,10.0,10.0,78,0.00,,,0.00,0,Wunderground v.1.15,2013-04-13 01:40:00,
2013-04-12 20:49:00,32.5,26.7,29.97,WNW,288,8.0,8.0,79,0.00,,,0.00,0,Wunderground v.1.15,2013-04-13 01:49:00,
2013-04-12 20:59:00,32.6,26.5,29.97,NNW,345,8.0,11.0,78,0.00,,,0.00,0,Wunderground v.1.15,2013-04-13 01:59:00,
2013-04-12 21:10:00,32.6,26.8,29.97,WNW,294,8.0,8.0,79,0.00,,,0.00,0,Wunderground v.1.15,2013-04-13 02:10:00,
2013-04-12 21:20:00,32.5,26.7,29.98,WNW,282,8.0,18.0,79,0.00,,,0.00,0,Wunderground v.1.15,2013-04-13 02:20:00,
2013-04-12 21:29:00,32.5,27.0,29.99,WNW,289,10.0,10.0,80,0.00,,,0.00,0,Wunderground v.1.15,2013-04-13 02:29:00,
2013-04-12 21:39:00,32.5,27.0,29.99,NW,323,8.0,8.0,80,0.00,,,0.00,0,Wunderground v.1.15,2013-04-13 02:39:00,
2013-04-12 21:50:00,32.5,27.3,29.99,WNW,283,8.0,8.0,81,0.00,,,0.00,0,Wunderground v.1.15,2013-04-13 02:50:00,
2013-04-12 21:59:00,32.4,27.2,29.99,WNW,292,8.0,9.0,81,0.00,,,0.00,0,Wunderground v.1.15,2013-04-13 02:59:00,
2013-04-12 22:10:00,32.4,26.9,29.99,NW,325,8.0,8.0,80,0.00,,,0.00,0,Wunderground v.1.15,2013-04-13 03:10:00,
2013-04-12 22:20:00,32.3,27.1,29.99,WNW,301,9.0,9.0,81,0.00,,,0.00,0,Wunderground v.1.15,2013-04-13 03:20:00,
2013-04-12 22:29:00,32.3,27.1,29.99,WNW,303,8.0,8.0,81,0.00,,,0.00,0,Wunderground v.1.15,2013-04-13 03:29:00,
2013-04-12 22:40:00,32.2,27.0,29.99,WNW,298,7.0,7.0,81,0.00,,,0.00,0,Wunderground v.1.15,2013-04-13 03:40:00,
2013-04-12 22:50:00,32.2,27.0,29.99,NW,313,9.0,9.0,81,0.00,,,0.00,0,Wunderground v.1.15,2013-04-13 03:50:00,
2013-04-12 23:00:00,32.2,27.0,29.99,NW,304,8.0,9.0,81,0.00,,,0.00,0,Wunderground v.1.15,2013-04-13 04:00:00,
2013-04-12 23:09:00,32.2,27.3,29.99,WNW,285,8.0,8.0,82,0.00,,,0.00,0,Wunderground v.1.15,2013-04-13 04:09:00,
2013-04-12 23:20:00,32.2,27.3,29.99,West,276,9.0,9.0,82,0.00,,,0.00,0,Wunderground v.1.15,2013-04-13 04:20:00,
2013-04-12 23:30:00,32.3,27.1,29.99,WNW,294,9.0,11.0,81,0.00,,,0.00,0,Wunderground v.1.15,2013-04-13 04:30:00,
2013-04-12 23:39:00,32.3,26.8,30.00,NW,318,10.0,10.0,80,0.00,,,0.00,0,Wunderground v.1.15,2013-04-13 04:39:00,
2013-04-12 23:49:00,32.2,26.4,30.00,WNW,296,8.0,8.0,79,0.00,,,0.00,0,Wunderground v.1.15,2013-04-13 04:49:00,